Time;durP1;ratioP1;P1;durP2;ratioP2;P2;SDS_P1;SDS_P2;PMS_P1;PMS_P2;Temp;Humidity;BMP_temperature;BMP_pressure;BME280_temperature;BME280_humidity;BME280_pressure;Samples;Min_cycle;Max_cycle;Signal;HPM_P1;HPM_P2
2021/12/03 00:01:07;;;;;;;46.20;32.30;;;7.40;73.90;;;;;;4897009;29;20211;-83
2021/12/03 00:03:34;;;;;;;44.20;35.60;;;7.30;73.80;;;;;;4902966;29;20775;-82
2021/12/03 00:06:01;;;;;;;49.87;31.50;;;7.30;73.70;;;;;;4911669;29;20270;-83
2021/12/03 00:08:30;;;;;;;41.43;37.07;;;7.30;73.80;;;;;;4896102;29;20246;-82
2021/12/03 00:11:00;;;;;;;44.10;32.20;;;7.30;73.70;;;;;;4896258;29;20248;-83
2021/12/03 00:13:29;;;;;;;38.30;31.60;;;7.30;73.70;;;;;;4896367;29;20251;-83
2021/12/03 00:15:58;;;;;;;46.63;30.27;;;7.30;73.70;;;;;;4896222;29;20737;-84
2021/12/03 00:18:25;;;;;;;37.00;33.20;;;7.30;73.80;;;;;;4896475;29;20203;-82
2021/12/03 00:20:53;;;;;;;43.13;33.10;;;7.20;73.70;;;;;;4896286;29;20955;-83
2021/12/03 00:23:21;;;;;;;34.43;30.23;;;7.20;73.60;;;;;;4877724;29;20237;-82
2021/12/03 00:25:50;;;;;;;39.90;31.10;;;7.20;73.60;;;;;;4880702;29;20364;-83
2021/12/03 00:28:17;;;;;;;41.90;32.37;;;7.20;73.60;;;;;;4901634;29;20695;-82
2021/12/03 00:30:44;;;;;;;46.77;27.17;;;7.20;73.50;;;;;;4894867;29;20704;-83
2021/12/03 00:33:12;;;;;;;36.23;28.47;;;7.10;73.40;;;;;;4882629;29;20208;-82
2021/12/03 00:35:39;;;;;;;40.37;32.53;;;7.20;73.50;;;;;;4884587;29;20220;-83
2021/12/03 00:38:09;;;;;;;46.87;32.67;;;7.10;73.40;;;;;;4895180;29;20312;-83
2021/12/03 00:40:39;;;;;;;51.73;35.10;;;7.10;73.30;;;;;;4895216;29;20704;-82
2021/12/03 00:43:08;;;;;;;54.40;36.53;;;7.10;73.20;;;;;;4896046;29;20648;-84
2021/12/03 00:45:36;;;;;;;36.00;32.00;;;7.00;73.00;;;;;;4896097;29;20379;-83
2021/12/03 00:48:05;;;;;;;44.57;33.70;;;7.00;73.10;;;;;;4888639;29;20902;-83
2021/12/03 00:50:33;;;;;;;49.70;34.33;;;6.90;73.00;;;;;;4893158;29;20238;-83
2021/12/03 00:53:01;;;;;;;39.50;35.27;;;6.90;73.10;;;;;;4893306;29;20760;-83
2021/12/03 00:55:30;;;;;;;60.23;38.10;;;6.90;73.10;;;;;;4890202;29;20691;-83
2021/12/03 00:57:58;;;;;;;43.17;33.93;;;6.80;73.10;;;;;;4891258;29;20293;-83
2021/12/03 01:00:29;;;;;;;73.33;40.20;;;6.70;73.10;;;;;;4881754;29;20321;-82
2021/12/03 01:02:59;;;;;;;63.83;38.67;;;6.70;73.10;;;;;;4884396;29;20235;-82
2021/12/03 01:05:27;;;;;;;84.73;36.93;;;6.70;73.10;;;;;;4882121;29;20230;-83
2021/12/03 01:08:04;;;;;;;61.60;39.20;;;6.70;73.10;;;;;;4883266;29;20202;-83
2021/12/03 01:10:49;;;;;;;;;;;;;;;;;;;;;
2021/12/03 01:13:33;;;;;;;74.47;44.27;;;6.60;73.80;;;;;;4888163;29;20235;-82
2021/12/03 01:16:05;;;;;;;70.50;36.60;;;6.60;73.00;;;;;;4885944;29;20233;-84
2021/12/03 01:18:32;;;;;;;44.43;36.97;;;6.50;72.90;;;;;;4889399;29;20215;-83
2021/12/03 01:20:59;;;;;;;43.00;37.93;;;6.50;73.00;;;;;;4893932;29;20298;-83
2021/12/03 01:23:26;;;;;;;53.87;38.20;;;6.50;73.10;;;;;;4894157;29;20650;-81
2021/12/03 01:25:53;;;;;;;61.53;39.30;;;6.40;73.30;;;;;;4891462;29;20738;-82
2021/12/03 01:28:20;;;;;;;56.93;39.40;;;6.40;73.40;;;;;;4894449;29;20211;-82
2021/12/03 01:30:47;;;;;;;41.67;37.27;;;6.30;73.40;;;;;;4892597;29;20212;-83
2021/12/03 01:33:15;;;;;;;42.07;37.83;;;6.30;73.60;;;;;;4893634;29;20638;-82
2021/12/03 01:35:42;;;;;;;50.47;37.27;;;6.20;73.60;;;;;;4891987;29;20296;-83
2021/12/03 01:38:09;;;;;;;71.17;44.60;;;6.20;73.70;;;;;;4891651;29;20306;-82
2021/12/03 01:40:39;;;;;;;46.87;42.00;;;6.20;73.80;;;;;;4893138;29;20568;-83
2021/12/03 01:43:08;;;;;;;42.53;37.90;;;6.20;74.00;;;;;;4894120;29;22178;-84
2021/12/03 01:45:38;;;;;;;63.50;42.80;;;6.10;74.00;;;;;;4893129;29;20238;-83
2021/12/03 01:48:06;;;;;;;98.23;41.00;;;6.10;74.30;;;;;;4889313;29;20296;-83
2021/12/03 01:50:38;;;;;;;40.83;36.50;;;6.10;74.30;;;;;;4891944;29;20321;-83
2021/12/03 01:53:06;;;;;;;66.10;42.03;;;6.10;74.40;;;;;;4893714;29;20211;-82
2021/12/03 01:55:34;;;;;;;57.47;40.23;;;6.10;74.30;;;;;;4897769;29;20243;-82
2021/12/03 01:58:01;;;;;;;47.87;40.13;;;6.10;74.20;;;;;;4890137;29;20295;-84
2021/12/03 02:00:31;;;;;;;46.07;41.50;;;6.00;74.20;;;;;;4892544;29;20239;-84
2021/12/03 02:02:59;;;;;;;60.20;41.60;;;6.00;74.20;;;;;;4893566;29;20303;-83
2021/12/03 02:05:26;;;;;;;58.93;41.40;;;6.00;74.20;;;;;;4891673;29;20569;-82
2021/12/03 02:07:55;;;;;;;49.70;40.80;;;5.90;74.10;;;;;;4892591;29;20237;-82
2021/12/03 02:10:24;;;;;;;49.87;44.80;;;5.90;74.10;;;;;;4892056;29;20200;-81
2021/12/03 02:12:52;;;;;;;56.47;40.07;;;5.90;74.10;;;;;;4894230;29;20298;-81
2021/12/03 02:15:20;;;;;;;48.50;43.43;;;5.90;74.10;;;;;;4892721;29;20282;-82
2021/12/03 02:17:47;;;;;;;47.57;42.57;;;5.90;74.10;;;;;;4888768;29;20753;-83
2021/12/03 02:20:15;;;;;;;49.13;44.77;;;5.90;74.10;;;;;;4893318;29;20244;-82
2021/12/03 02:22:44;;;;;;;50.70;41.60;;;5.90;74.10;;;;;;4889887;29;20300;-83
2021/12/03 02:25:15;;;;;;;65.67;44.07;;;5.90;74.10;;;;;;4890955;29;20783;-83
2021/12/03 02:27:43;;;;;;;58.00;46.23;;;5.90;74.10;;;;;;4892963;29;20316;-83
2021/12/03 02:30:11;;;;;;;55.20;38.60;;;5.90;74.10;;;;;;4887230;29;20293;-82
2021/12/03 02:32:38;;;;;;;46.73;40.47;;;5.90;74.20;;;;;;4891450;29;20219;-82
2021/12/03 02:35:07;;;;;;;65.27;44.00;;;5.90;74.10;;;;;;4890490;29;20783;-82
2021/12/03 02:37:34;;;;;;;44.53;38.93;;;5.80;74.00;;;;;;4891484;29;20308;-82
2021/12/03 02:40:06;;;;;;;53.77;41.53;;;5.80;74.00;;;;;;4889073;29;20212;-82
2021/12/03 02:42:34;;;;;;;46.07;41.93;;;5.80;73.60;;;;;;4890038;29;20298;-83
2021/12/03 02:45:01;;;;;;;51.47;46.77;;;5.80;73.50;;;;;;4893566;29;20281;-83
2021/12/03 02:47:28;;;;;;;52.00;43.27;;;5.80;73.50;;;;;;4893287;29;20237;-83
2021/12/03 02:49:55;;;;;;;50.33;44.00;;;5.80;73.40;;;;;;4895172;29;20285;-83
2021/12/03 02:52:22;;;;;;;64.57;43.93;;;5.80;73.20;;;;;;4888121;29;22337;-82
2021/12/03 02:54:49;;;;;;;46.77;41.87;;;5.80;73.00;;;;;;4891526;29;20317;-83
2021/12/03 02:57:17;;;;;;;67.40;45.33;;;5.70;72.90;;;;;;4890054;29;20238;-83
2021/12/03 02:59:45;;;;;;;76.07;53.67;;;5.70;72.80;;;;;;4890286;29;20209;-82
2021/12/03 03:02:12;;;;;;;65.17;45.13;;;5.70;72.80;;;;;;4890240;29;20293;-84
2021/12/03 03:04:39;;;;;;;72.83;46.70;;;5.70;72.80;;;;;;4887437;29;20233;-81
2021/12/03 03:07:06;;;;;;;55.10;49.53;;;5.70;72.70;;;;;;4890472;29;20281;-82
2021/12/03 03:09:34;;;;;;;53.77;48.13;;;5.70;72.60;;;;;;4891048;29;20218;-82
2021/12/03 03:12:01;;;;;;;59.80;50.77;;;5.70;72.50;;;;;;4888882;29;20235;-82
2021/12/03 03:14:29;;;;;;;48.57;43.80;;;5.60;72.40;;;;;;4891364;29;20420;-83
2021/12/03 03:16:56;;;;;;;67.90;49.10;;;5.70;72.50;;;;;;4891722;29;20289;-82
2021/12/03 03:19:24;;;;;;;55.50;44.07;;;5.60;72.40;;;;;;4888928;29;20877;-82
2021/12/03 03:21:51;;;;;;;68.00;53.13;;;5.60;72.20;;;;;;4891528;29;20237;-82
2021/12/03 03:24:20;;;;;;;48.40;43.63;;;5.60;72.10;;;;;;4892550;29;20332;-82
2021/12/03 03:26:47;;;;;;;61.10;43.80;;;5.60;72.10;;;;;;4892331;29;20272;-83
2021/12/03 03:29:16;;;;;;;56.50;50.83;;;5.60;72.00;;;;;;4878141;29;20216;-82
2021/12/03 03:31:45;;;;;;;45.37;41.10;;;5.60;72.10;;;;;;4891298;29;20239;-82
2021/12/03 03:34:13;;;;;;;50.63;45.53;;;5.50;72.00;;;;;;4892487;29;20223;-81
2021/12/03 03:36:42;;;;;;;52.97;47.77;;;5.50;72.00;;;;;;4890909;29;20214;-82
2021/12/03 03:39:12;;;;;;;49.70;45.27;;;5.50;71.70;;;;;;4892854;29;20305;-84
2021/12/03 03:41:40;;;;;;;50.33;45.27;;;5.50;71.80;;;;;;4893399;29;20292;-83
2021/12/03 03:44:07;;;;;;;79.83;52.00;;;5.50;71.90;;;;;;4905687;23;20329;-82
2021/12/03 03:46:35;;;;;;;53.67;45.07;;;5.50;72.00;;;;;;4868680;29;20233;-82
2021/12/03 03:49:04;;;;;;;52.93;47.37;;;5.50;71.90;;;;;;4872746;29;20208;-82
2021/12/03 03:51:32;;;;;;;46.83;42.03;;;5.40;71.60;;;;;;4872792;29;20619;-83
2021/12/03 03:53:59;;;;;;;48.70;43.87;;;5.40;71.70;;;;;;4873230;29;20235;-82
2021/12/03 03:56:26;;;;;;;50.33;45.40;;;5.40;71.80;;;;;;4871681;29;20747;-82
2021/12/03 03:58:53;;;;;;;52.40;47.30;;;5.30;71.90;;;;;;4872374;29;20289;-82
2021/12/03 04:01:20;;;;;;;51.67;42.43;;;5.30;72.00;;;;;;4869378;29;20298;-82
2021/12/03 04:03:47;;;;;;;51.43;46.50;;;5.40;72.00;;;;;;4873865;29;20313;-82
2021/12/03 04:06:17;;;;;;;50.57;45.40;;;5.40;72.00;;;;;;4872654;29;20321;-82
2021/12/03 04:08:45;;;;;;;50.10;45.43;;;5.30;71.90;;;;;;4872571;29;20295;-82
2021/12/03 04:11:14;;;;;;;53.77;48.77;;;5.40;72.00;;;;;;4873877;29;20691;-82
2021/12/03 04:13:42;;;;;;;61.93;45.27;;;5.30;71.90;;;;;;4873152;29;20319;-82
2021/12/03 04:16:10;;;;;;;53.93;47.10;;;5.30;71.80;;;;;;4871828;29;20210;-82
2021/12/03 04:18:37;;;;;;;57.13;51.00;;;5.30;71.90;;;;;;4875711;29;20298;-82
2021/12/03 04:21:04;;;;;;;59.20;53.47;;;5.30;72.00;;;;;;4875708;29;20298;-82
2021/12/03 04:23:33;;;;;;;64.20;58.80;;;5.30;72.10;;;;;;4876972;29;20261;-82
2021/12/03 04:26:00;;;;;;;62.97;56.47;;;5.30;72.10;;;;;;4875955;29;20289;-82
2021/12/03 04:28:27;;;;;;;60.07;53.90;;;5.20;72.00;;;;;;4876758;29;20204;-82
2021/12/03 04:30:55;;;;;;;52.73;48.00;;;5.30;72.20;;;;;;4876523;29;20248;-82
2021/12/03 04:33:22;;;;;;;55.10;49.67;;;5.30;72.10;;;;;;4876797;29;20312;-81
2021/12/03 04:35:49;;;;;;;62.33;48.00;;;5.30;72.10;;;;;;4870412;29;20234;-82
2021/12/03 04:38:16;;;;;;;61.50;55.53;;;5.20;72.00;;;;;;4876424;29;20291;-82
2021/12/03 04:40:45;;;;;;;56.03;50.60;;;5.20;72.00;;;;;;4873732;29;20293;-83
2021/12/03 04:43:12;;;;;;;71.57;49.50;;;5.20;72.10;;;;;;4874719;29;20306;-82
2021/12/03 04:45:39;;;;;;;65.50;49.80;;;5.20;72.10;;;;;;4872083;29;20301;-82
2021/12/03 04:48:07;;;;;;;53.67;48.93;;;5.20;72.20;;;;;;4875229;29;20238;-82
2021/12/03 04:50:36;;;;;;;71.00;51.60;;;5.20;72.30;;;;;;4873224;29;20349;-82
2021/12/03 04:53:04;;;;;;;69.27;50.83;;;5.10;72.30;;;;;;4875925;29;20321;-81
2021/12/03 04:55:31;;;;;;;66.40;47.53;;;5.20;72.40;;;;;;4874101;29;20295;-84
2021/12/03 04:58:00;;;;;;;49.80;45.70;;;5.10;72.30;;;;;;4873096;29;20262;-81
2021/12/03 05:00:30;;;;;;;60.63;53.97;;;5.20;72.40;;;;;;4876231;29;20633;-82
2021/12/03 05:02:58;;;;;;;80.03;55.40;;;5.10;72.30;;;;;;4874560;29;20328;-81
2021/12/03 05:05:26;;;;;;;55.67;46.83;;;5.10;72.20;;;;;;4874847;29;20235;-83
2021/12/03 05:07:57;;;;;;;56.57;49.73;;;5.10;72.20;;;;;;4874338;29;20242;-82
2021/12/03 05:10:24;;;;;;;66.23;50.23;;;5.10;72.30;;;;;;4876143;29;20218;-82
2021/12/03 05:12:51;;;;;;;49.90;45.33;;;5.10;72.40;;;;;;4877059;29;20299;-82
2021/12/03 05:15:20;;;;;;;55.53;50.17;;;5.10;72.40;;;;;;4873415;29;20262;-82
2021/12/03 05:17:47;;;;;;;50.23;45.43;;;5.10;72.30;;;;;;4876041;29;20294;-84
2021/12/03 05:20:14;;;;;;;65.57;48.37;;;5.10;72.30;;;;;;4875395;29;20322;-83
2021/12/03 05:22:42;;;;;;;51.40;46.67;;;5.10;72.30;;;;;;4877168;29;20211;-83
2021/12/03 05:25:09;;;;;;;54.63;49.53;;;5.20;72.50;;;;;;4873090;29;20226;-83
2021/12/03 05:27:37;;;;;;;53.70;48.73;;;5.10;72.40;;;;;;4876920;29;20270;-83
2021/12/03 05:30:06;;;;;;;63.70;48.23;;;5.10;72.40;;;;;;4877406;29;20214;-83
2021/12/03 05:32:34;;;;;;;53.47;47.73;;;5.10;72.40;;;;;;4876628;29;20255;-83
2021/12/03 05:35:01;;;;;;;54.43;48.77;;;5.10;72.40;;;;;;4876200;29;20259;-81
2021/12/03 05:37:28;;;;;;;64.30;48.73;;;5.10;72.50;;;;;;4876171;29;20619;-83
2021/12/03 05:39:55;;;;;;;54.83;49.40;;;5.10;72.60;;;;;;4875046;29;20239;-84
2021/12/03 05:42:22;;;;;;;55.27;49.67;;;5.10;72.60;;;;;;4876807;29;20289;-83
2021/12/03 05:44:49;;;;;;;58.60;47.80;;;5.10;72.60;;;;;;4873275;29;20337;-83
2021/12/03 05:47:16;;;;;;;62.83;47.53;;;5.10;72.70;;;;;;4874310;29;20245;-83
2021/12/03 05:49:44;;;;;;;60.40;48.03;;;5.10;72.70;;;;;;4872812;29;20306;-83
2021/12/03 05:52:11;;;;;;;56.17;50.13;;;5.20;72.90;;;;;;4875111;29;20306;-82
2021/12/03 05:54:38;;;;;;;83.20;53.60;;;5.20;72.90;;;;;;4873742;29;20253;-83
2021/12/03 05:57:06;;;;;;;70.37;50.87;;;5.10;72.70;;;;;;4872571;29;20289;-83
2021/12/03 05:59:32;;;;;;;70.87;48.33;;;5.20;72.80;;;;;;4873915;29;20767;-83
2021/12/03 06:01:59;;;;;;;52.63;47.80;;;5.20;72.80;;;;;;4873435;29;20289;-82
2021/12/03 06:04:27;;;;;;;59.00;50.10;;;5.20;72.80;;;;;;4874764;29;20305;-85
2021/12/03 06:06:56;;;;;;;59.13;53.30;;;5.20;72.80;;;;;;4875458;29;20256;-82
2021/12/03 06:09:23;;;;;;;50.43;46.37;;;5.20;72.80;;;;;;4874205;29;20296;-83
2021/12/03 06:11:50;;;;;;;50.57;45.33;;;5.20;72.90;;;;;;4875075;29;20736;-83
2021/12/03 06:14:17;;;;;;;49.90;45.23;;;5.20;73.00;;;;;;4873575;29;20311;-82
2021/12/03 06:16:44;;;;;;;52.33;47.63;;;5.20;73.10;;;;;;4882390;29;20703;-84
2021/12/03 06:19:11;;;;;;;65.43;59.30;;;5.20;73.10;;;;;;4875562;29;20266;-82
2021/12/03 06:21:38;;;;;;;51.57;47.60;;;5.30;73.10;;;;;;4876127;29;20289;-83
2021/12/03 06:24:07;;;;;;;52.93;48.33;;;5.30;73.00;;;;;;4875275;29;20871;-83
2021/12/03 06:26:34;;;;;;;56.30;51.10;;;5.30;73.10;;;;;;4875530;29;20305;-83
2021/12/03 06:29:00;;;;;;;54.00;49.07;;;5.30;73.10;;;;;;4875457;29;20303;-82
2021/12/03 06:31:27;;;;;;;54.27;48.43;;;5.30;73.00;;;;;;4867938;29;20250;-82
2021/12/03 06:33:54;;;;;;;55.63;49.87;;;5.40;73.10;;;;;;4864057;29;20318;-83
2021/12/03 06:36:21;;;;;;;49.43;44.87;;;5.30;72.90;;;;;;4882593;29;20289;-83
2021/12/03 06:38:48;;;;;;;53.07;47.70;;;5.40;73.00;;;;;;4866966;29;20234;-83
2021/12/03 06:41:17;;;;;;;85.37;52.00;;;5.40;73.00;;;;;;4870372;29;20299;-83
2021/12/03 06:43:43;;;;;;;54.67;49.43;;;5.40;73.00;;;;;;4875442;29;20325;-83
2021/12/03 06:46:10;;;;;;;53.43;48.30;;;5.30;72.90;;;;;;4874075;29;20306;-83
2021/12/03 06:48:37;;;;;;;50.20;45.27;;;5.40;73.00;;;;;;4871649;29;20883;-84
2021/12/03 06:51:04;;;;;;;57.17;46.40;;;5.40;73.00;;;;;;4872854;29;20685;-83
2021/12/03 06:53:40;;;;;;;54.10;49.37;;;5.40;72.90;;;;;;4898731;23;20757;-82
2021/12/03 06:56:10;;;;;;;86.40;52.00;;;5.40;72.90;;;;;;4888934;29;21127;-83
2021/12/03 06:58:39;;;;;;;76.10;57.33;;;5.40;72.90;;;;;;4886537;29;20215;-82
2021/12/03 07:01:06;;;;;;;77.90;47.77;;;5.40;72.90;;;;;;4889959;29;20237;-83
2021/12/03 07:03:33;;;;;;;70.20;47.60;;;5.40;72.90;;;;;;4890711;29;20269;-84
2021/12/03 07:06:00;;;;;;;68.93;48.80;;;5.40;72.90;;;;;;4888856;29;20854;-82
2021/12/03 07:08:27;;;;;;;70.10;47.63;;;5.40;72.90;;;;;;4891130;29;20265;-84
2021/12/03 07:10:53;;;;;;;75.83;54.63;;;5.40;72.80;;;;;;4890941;29;20246;-83
2021/12/03 07:13:20;;;;;;;56.33;50.33;;;5.40;72.90;;;;;;4891822;29;20308;-83
2021/12/03 07:15:49;;;;;;;57.67;52.77;;;5.40;73.10;;;;;;4892253;29;20246;-83
2021/12/03 07:18:16;;;;;;;49.00;43.73;;;5.50;73.10;;;;;;4892432;29;20276;-83
2021/12/03 07:20:43;;;;;;;55.67;49.80;;;5.50;73.10;;;;;;4886805;29;20294;-83
2021/12/03 07:23:09;;;;;;;54.40;46.13;;;5.40;73.10;;;;;;4879603;29;20289;-81
2021/12/03 07:25:36;;;;;;;74.90;45.27;;;5.50;73.20;;;;;;4888194;29;20617;-83
2021/12/03 07:28:04;;;;;;;54.33;48.67;;;5.50;73.60;;;;;;4890924;29;20266;-81
2021/12/03 07:30:31;;;;;;;55.87;46.77;;;5.50;73.70;;;;;;4890032;29;20734;-82
2021/12/03 07:33:01;;;;;;;52.43;48.40;;;5.50;73.70;;;;;;4884366;29;20206;-83
2021/12/03 07:35:28;;;;;;;61.73;49.77;;;5.60;73.80;;;;;;4892210;29;20209;-82
2021/12/03 07:37:55;;;;;;;51.17;45.67;;;5.60;73.90;;;;;;4892144;29;20750;-82
2021/12/03 07:40:22;;;;;;;78.27;46.77;;;5.60;73.80;;;;;;4890024;29;20245;-83
2021/12/03 07:42:49;;;;;;;53.27;44.07;;;5.60;73.80;;;;;;4886066;29;20634;-82
2021/12/03 07:45:16;;;;;;;57.03;51.67;;;5.60;73.90;;;;;;4891062;29;20316;-82
2021/12/03 07:47:43;;;;;;;50.87;46.53;;;5.70;74.00;;;;;;4894925;29;20241;-82
2021/12/03 07:50:13;;;;;;;49.43;44.37;;;5.70;73.90;;;;;;4893925;29;20613;-82
2021/12/03 07:52:40;;;;;;;61.13;47.80;;;5.70;74.00;;;;;;4891839;29;20312;-82
2021/12/03 07:55:08;;;;;;;54.77;49.67;;;5.70;74.20;;;;;;4896134;29;20304;-81
2021/12/03 07:57:35;;;;;;;48.33;44.27;;;5.70;75.20;;;;;;4896676;29;20297;-81
2021/12/03 08:00:04;;;;;;;54.40;44.37;;;5.70;74.60;;;;;;4893392;29;20266;-81
2021/12/03 08:02:31;;;;;;;52.67;46.00;;;5.70;74.80;;;;;;4894234;29;20210;-82
2021/12/03 08:04:57;;;;;;;50.17;44.93;;;5.80;74.90;;;;;;4896405;29;20322;-81
2021/12/03 08:07:28;;;;;;;57.87;47.27;;;5.80;75.10;;;;;;4895322;29;20255;-82
2021/12/03 08:09:55;;;;;;;48.47;43.17;;;5.80;75.20;;;;;;4896598;29;20211;-82
2021/12/03 08:12:21;;;;;;;51.63;46.70;;;5.80;75.50;;;;;;4896607;29;20293;-82
2021/12/03 08:14:48;;;;;;;52.63;47.97;;;5.80;75.40;;;;;;4896808;29;20266;-82
2021/12/03 08:17:15;;;;;;;61.97;42.87;;;5.80;75.60;;;;;;4895124;29;20264;-82
2021/12/03 08:19:42;;;;;;;55.53;50.00;;;5.90;75.70;;;;;;4890231;29;20218;-82
2021/12/03 08:22:09;;;;;;;54.40;49.23;;;5.90;75.70;;;;;;4896864;29;20210;-82
2021/12/03 08:24:37;;;;;;;55.17;49.87;;;5.90;75.90;;;;;;4896311;29;20243;-82
2021/12/03 08:27:04;;;;;;;55.77;50.33;;;5.90;76.20;;;;;;4896361;29;20246;-81
2021/12/03 08:29:32;;;;;;;52.83;47.17;;;5.90;76.10;;;;;;4896348;29;20309;-82
2021/12/03 08:31:59;;;;;;;55.00;49.47;;;5.90;76.10;;;;;;4896717;29;20239;-82
2021/12/03 08:34:26;;;;;;;54.20;44.70;;;5.90;76.00;;;;;;4892144;29;20318;-82
2021/12/03 08:36:53;;;;;;;49.77;45.13;;;5.90;76.00;;;;;;4896838;29;20241;-82
2021/12/03 08:39:20;;;;;;;58.87;40.43;;;5.90;76.00;;;;;;4896292;29;20246;-82
2021/12/03 08:41:48;;;;;;;43.17;38.57;;;5.90;76.00;;;;;;4895750;29;20246;-82
2021/12/03 08:44:16;;;;;;;50.37;44.37;;;5.90;76.30;;;;;;4896211;29;20417;-82
2021/12/03 08:46:43;;;;;;;51.03;42.03;;;6.00;76.30;;;;;;4895945;29;20271;-82
2021/12/03 08:49:14;;;;;;;50.17;38.93;;;6.00;76.60;;;;;;4888417;29;20229;-81
2021/12/03 08:51:53;;;;;;;48.37;44.33;;;6.00;76.90;;;;;;4896071;29;20591;-82
2021/12/03 08:57:06;;;;;;;43.90;40.23;;;6.10;76.20;;;;;;4895790;29;20210;-82
2021/12/03 08:59:33;;;;;;;49.43;44.50;;;6.10;76.20;;;;;;4895356;29;20274;-82
2021/12/03 09:02:00;;;;;;;41.53;37.83;;;6.10;76.00;;;;;;4896195;29;20288;-82
2021/12/03 09:04:28;;;;;;;49.83;42.57;;;6.10;76.00;;;;;;4895770;29;20258;-82
2021/12/03 09:06:56;;;;;;;50.87;45.87;;;6.10;75.90;;;;;;4890651;29;20235;-82
2021/12/03 09:09:23;;;;;;;47.90;42.90;;;6.20;76.00;;;;;;4896018;29;20240;-81
2021/12/03 09:11:50;;;;;;;51.10;46.57;;;6.20;75.90;;;;;;4895770;29;20668;-82
2021/12/03 09:14:24;;;;;;;53.93;48.87;;;6.20;75.60;;;;;;4895465;29;20312;-82
2021/12/03 09:16:57;;;;;;;52.93;42.73;;;6.30;75.90;;;;;;4894470;29;20659;-83
2021/12/03 09:19:27;;;;;;;59.10;45.17;;;6.30;75.80;;;;;;4892817;29;20217;-81
2021/12/03 09:21:55;;;;;;;51.30;46.47;;;6.30;75.70;;;;;;4895468;29;20236;-82
2021/12/03 09:24:29;;;;;;;55.17;48.90;;;6.30;75.60;;;;;;4891109;29;20305;-81
2021/12/03 09:26:56;;;;;;;48.67;43.80;;;6.40;75.00;;;;;;4894977;29;20308;-81
2021/12/03 09:29:29;;;;;;;48.73;42.70;;;6.40;74.70;;;;;;4894622;29;20237;-82
2021/12/03 09:31:57;;;;;;;45.90;41.13;;;6.40;74.80;;;;;;4895605;29;20679;-82
2021/12/03 09:34:24;;;;;;;62.63;46.27;;;6.40;74.70;;;;;;4895055;29;20743;-82
2021/12/03 09:36:52;;;;;;;46.40;41.97;;;6.40;74.60;;;;;;4895617;29;20220;-82
2021/12/03 09:39:20;;;;;;;46.90;42.77;;;6.50;74.70;;;;;;4894559;29;20805;-83
2021/12/03 09:41:48;;;;;;;50.97;46.73;;;6.50;74.70;;;;;;4895214;29;20286;-81
2021/12/03 09:44:16;;;;;;;48.00;43.40;;;6.50;74.30;;;;;;4895052;29;20226;-82
2021/12/03 09:46:44;;;;;;;57.67;48.20;;;6.50;74.50;;;;;;4895036;29;20529;-83
2021/12/03 09:49:24;;;;;;;43.73;40.07;;;6.50;74.10;;;;;;4883502;29;20323;-82
2021/12/03 09:52:04;;;;;;;43.93;36.63;;;6.50;74.10;;;;;;4889748;29;20214;-81
2021/12/03 09:54:37;;;;;;;50.40;42.90;;;6.60;74.10;;;;;;4891792;29;20294;-82
2021/12/03 09:57:08;;;;;;;51.07;45.93;;;6.60;74.00;;;;;;4893167;29;20680;-83
2021/12/03 10:14:10;;;;;;;48.10;43.13;;;6.70;73.50;;;;;;4889167;29;20233;-83
2021/12/03 10:16:52;;;;;;;50.87;39.83;;;6.70;73.20;;;;;;4894050;29;20694;-83
2021/12/03 10:19:31;;;;;;;79.30;44.67;;;6.70;73.10;;;;;;4892242;29;20292;-83
2021/12/03 10:30:28;;;;;;;46.30;41.87;;;6.80;73.30;;;;;;4887445;29;20212;-82
2021/12/03 10:33:14;;;;;;;54.80;37.67;;;6.70;73.10;;;;;;4892834;29;20202;-81
2021/12/03 10:36:06;;;;;;;81.30;37.00;;;6.80;73.10;;;;;;4883284;29;20709;-82
2021/12/03 10:38:47;;;;;;;46.50;37.40;;;6.80;73.00;;;;;;4883940;29;20212;-83
2021/12/03 10:41:26;;;;;;;49.27;37.10;;;6.80;73.10;;;;;;4893074;29;20624;-81
2021/12/03 10:44:15;;;;;;;39.17;35.87;;;6.80;73.20;;;;;;4893555;29;20229;-82
2021/12/03 10:46:52;;;;;;;49.00;39.00;;;6.90;73.20;;;;;;4893998;29;20228;-82
2021/12/03 10:49:39;;;;;;;56.13;37.00;;;6.90;73.40;;;;;;4893519;29;20230;-83
2021/12/03 10:52:20;;;;;;;39.17;35.80;;;6.90;73.40;;;;;;4893235;29;20225;-82
2021/12/03 10:57:53;;;;;;;44.80;38.90;;;6.90;73.20;;;;;;4891665;29;20251;-83
2021/12/03 11:33:41;;;;;;;73.13;44.77;;;6.80;74.70;;;;;;4887015;29;20200;-83
2021/12/03 13:24:15;;;;;;;43.90;37.07;;;6.90;79.40;;;;;;4906381;23;20526;-84
2021/12/03 14:10:24;;;;;;;45.40;37.47;;;7.30;79.20;;;;;;4904433;29;20593;-83
2021/12/03 14:41:17;;;;;;;41.43;33.53;;;7.40;79.50;;;;;;4873235;29;20211;-84
2021/12/03 14:43:50;;;;;;;49.07;40.00;;;7.40;79.30;;;;;;4904515;23;20268;-84
2021/12/03 14:49:23;;;;;;;47.30;38.13;;;7.40;79.40;;;;;;4900863;29;20600;-85
2021/12/03 14:52:05;;;;;;;47.37;43.03;;;7.40;79.20;;;;;;4902011;29;20261;-84
2021/12/03 14:54:55;;;;;;;36.07;32.50;;;7.40;79.20;;;;;;4900928;29;20226;-83
2021/12/03 14:57:35;;;;;;;33.47;30.20;;;7.50;79.30;;;;;;4900931;29;20204;-84
2021/12/03 15:00:17;;;;;;;48.23;35.27;;;7.40;79.40;;;;;;4901539;29;20209;-85
2021/12/03 15:08:27;;;;;;;37.73;32.17;;;7.50;80.10;;;;;;4899772;29;20722;-84
2021/12/03 15:19:38;;;;;;;51.70;40.53;;;7.40;79.80;;;;;;4881636;29;20197;-85
2021/12/03 15:22:25;;;;;;;41.03;37.13;;;7.50;79.80;;;;;;4883003;29;20209;-86
2021/12/03 15:25:07;;;;;;;41.83;35.00;;;7.50;79.70;;;;;;4953832;23;20715;-82
2021/12/03 15:30:27;;;;;;;40.40;36.27;;;7.50;79.80;;;;;;4907393;29;20283;-83
2021/12/03 15:32:58;;;;;;;41.53;32.37;;;7.50;79.70;;;;;;4912778;29;20211;-87
2021/12/03 15:35:32;;;;;;;48.37;35.57;;;7.50;79.50;;;;;;4893524;29;20545;-83
2021/12/03 15:38:22;;;;;;;41.13;36.97;;;7.50;79.40;;;;;;4894050;29;20218;-84
2021/12/03 15:54:51;;;;;;;40.17;36.43;;;7.50;79.60;;;;;;4823401;29;20700;-84
2021/12/03 15:57:30;;;;;;;37.27;34.37;;;7.50;79.70;;;;;;4817128;29;20207;-82
2021/12/03 16:05:56;;;;;;;40.17;35.90;;;7.60;79.90;;;;;;4856256;29;20260;-82
2021/12/03 16:08:25;;;;;;;48.40;35.53;;;7.50;80.00;;;;;;4857497;29;20219;-82
2021/12/03 16:11:00;;;;;;;56.33;37.43;;;7.50;80.80;;;;;;4859791;29;20548;-82
2021/12/03 16:13:39;;;;;;;45.80;34.83;;;7.50;79.90;;;;;;4841018;29;20228;-82
2021/12/03 16:16:36;;;;;;;48.70;32.13;;;7.50;80.00;;;;;;4841774;29;20270;-82
2021/12/03 16:19:18;;;;;;;48.53;34.73;;;7.60;80.10;;;;;;4841621;29;20337;-83
2021/12/03 16:22:10;;;;;;;187.63;45.00;;;7.50;80.00;;;;;;5044607;23;20277;-84
2021/12/03 16:44:34;;;;;;;45.03;39.30;;;7.60;80.70;;;;;;4895911;29;20231;-83
2021/12/03 16:47:10;;;;;;;43.67;39.67;;;7.50;80.50;;;;;;4890136;29;20685;-82
2021/12/03 16:52:29;;;;;;;46.63;39.17;;;7.50;80.50;;;;;;4887550;29;20210;-83
2021/12/03 16:54:57;;;;;;;41.87;37.63;;;7.60;80.60;;;;;;4896682;29;20569;-82
2021/12/03 16:57:28;;;;;;;41.73;37.73;;;7.60;81.00;;;;;;4896347;29;20210;-83
2021/12/03 16:59:56;;;;;;;47.80;34.33;;;7.60;80.80;;;;;;4895458;29;20230;-83
2021/12/03 17:02:32;;;;;;;148.37;45.20;;;7.60;80.50;;;;;;4943752;23;20215;-83
2021/12/03 17:30:24;;;;;;;44.07;39.40;;;7.60;81.60;;;;;;4895518;29;20314;-83
2021/12/03 17:49:36;;;;;;;37.73;33.67;;;7.60;81.90;;;;;;4895308;29;20230;-81
2021/12/03 17:52:29;;;;;;;45.27;40.63;;;7.70;82.20;;;;;;4907791;23;20243;-83
2021/12/03 17:57:41;;;;;;;46.27;42.00;;;7.60;82.20;;;;;;4892757;29;20282;-82
2021/12/03 18:00:16;;;;;;;44.47;39.77;;;7.70;82.00;;;;;;4895090;29;20209;-83
2021/12/03 18:02:45;;;;;;;50.33;45.33;;;7.60;82.10;;;;;;4895062;29;20311;-83
2021/12/03 18:05:31;;;;;;;46.20;41.83;;;7.70;82.10;;;;;;4894847;29;20217;-81
2021/12/03 18:08:07;;;;;;;55.13;42.97;;;7.70;82.20;;;;;;4881011;29;20652;-82
2021/12/03 18:13:54;;;;;;;71.07;40.13;;;7.70;82.30;;;;;;4909579;23;20248;-84
2021/12/03 18:16:39;;;;;;;42.87;38.23;;;7.70;82.30;;;;;;4913352;29;20208;-83
2021/12/03 18:52:24;;;;;;;65.37;42.43;;;7.80;82.30;;;;;;4895974;29;20318;-84
2021/12/03 18:54:58;;;;;;;70.30;43.97;;;7.80;82.50;;;;;;4896919;29;20285;-83
2021/12/03 18:57:29;;;;;;;63.67;43.07;;;7.80;82.40;;;;;;4896763;29;20717;-84
2021/12/03 19:00:00;;;;;;;53.83;37.43;;;7.80;82.70;;;;;;4891059;29;20256;-84
2021/12/03 19:02:28;;;;;;;92.47;44.50;;;7.80;82.50;;;;;;4891893;29;20971;-83
2021/12/03 19:05:00;;;;;;;85.57;43.83;;;7.80;82.70;;;;;;4892765;29;20231;-84
2021/12/03 19:07:31;;;;;;;96.83;44.23;;;7.80;82.60;;;;;;4892582;29;20270;-85
2021/12/03 19:10:02;;;;;;;65.37;39.90;;;7.80;82.60;;;;;;4894357;29;21513;-83
2021/12/03 19:12:35;;;;;;;92.83;41.70;;;7.80;82.70;;;;;;4893141;29;20263;-84
2021/12/03 19:15:06;;;;;;;44.03;39.00;;;7.80;82.70;;;;;;4896959;29;20227;-84
2021/12/03 19:17:38;;;;;;;87.27;41.90;;;7.80;82.40;;;;;;4893402;29;20219;-84